sensor_id;sensor_type;location;lat;lon;timestamp;pressure;altitude;pressure_sealevel;temperature;humidity
67803;BME280;54601;51.378;-1.342;2022-11-11T00:01:18;100941.74;;;19.91;39.57
67803;BME280;54601;51.378;-1.342;2022-11-11T00:03:45;100939.59;;;19.90;39.57
67803;BME280;54601;51.378;-1.342;2022-11-11T00:06:10;100946.52;;;20.03;39.37
67803;BME280;54601;51.378;-1.342;2022-11-11T00:08:33;100951.87;;;20.10;39.24
67803;BME280;54601;51.378;-1.342;2022-11-11T00:11:01;100943.76;;;19.82;39.24
67803;BME280;54601;51.378;-1.342;2022-11-11T00:13:23;100949.16;;;19.79;39.29
67803;BME280;54601;51.378;-1.342;2022-11-11T00:15:48;100955.81;;;20.13;39.14
67803;BME280;54601;51.378;-1.342;2022-11-11T00:18:13;100950.58;;;19.99;39.23
67803;BME280;54601;51.378;-1.342;2022-11-11T00:20:38;100949.97;;;19.94;39.36
67803;BME280;54601;51.378;-1.342;2022-11-11T00:23:04;100946.32;;;19.91;39.43
67803;BME280;54601;51.378;-1.342;2022-11-11T00:25:28;100934.50;;;19.83;39.56
67803;BME280;54601;51.378;-1.342;2022-11-11T00:27:54;100939.40;;;19.86;39.47
67803;BME280;54601;51.378;-1.342;2022-11-11T00:30:19;100938.49;;;19.83;39.52
67803;BME280;54601;51.378;-1.342;2022-11-11T00:32:44;100945.96;;;19.55;39.55
67803;BME280;54601;51.378;-1.342;2022-11-11T00:35:09;100940.05;;;20.08;39.48
67803;BME280;54601;51.378;-1.342;2022-11-11T00:37:34;100942.10;;;20.02;39.51
67803;BME280;54601;51.378;-1.342;2022-11-11T00:39:59;100938.89;;;19.84;39.44
67803;BME280;54601;51.378;-1.342;2022-11-11T00:42:24;100932.36;;;20.09;39.35
67803;BME280;54601;51.378;-1.342;2022-11-11T00:44:49;100940.45;;;20.06;39.38
67803;BME280;54601;51.378;-1.342;2022-11-11T00:47:14;100936.04;;;19.71;39.58
67803;BME280;54601;51.378;-1.342;2022-11-11T00:49:39;100942.36;;;19.75;39.50
67803;BME280;54601;51.378;-1.342;2022-11-11T00:52:04;100942.72;;;19.84;39.39
67803;BME280;54601;51.378;-1.342;2022-11-11T00:54:30;100947.31;;;20.14;39.30
67803;BME280;54601;51.378;-1.342;2022-11-11T00:56:54;100939.53;;;19.52;39.44
67803;BME280;54601;51.378;-1.342;2022-11-11T00:59:20;100944.81;;;20.00;39.47
67803;BME280;54601;51.378;-1.342;2022-11-11T01:01:45;100944.10;;;19.82;39.43
67803;BME280;54601;51.378;-1.342;2022-11-11T01:04:10;100946.64;;;20.00;39.47
67803;BME280;54601;51.378;-1.342;2022-11-11T01:06:35;100940.38;;;19.81;39.40
67803;BME280;54601;51.378;-1.342;2022-11-11T01:09:04;100943.82;;;20.01;39.47
67803;BME280;54601;51.378;-1.342;2022-11-11T01:11:25;100940.51;;;20.04;39.38
67803;BME280;54601;51.378;-1.342;2022-11-11T01:13:50;100941.94;;;19.91;39.58
67803;BME280;54601;51.378;-1.342;2022-11-11T01:16:17;100947.24;;;20.06;39.37
67803;BME280;54601;51.378;-1.342;2022-11-11T01:18:41;100948.00;;;20.00;39.43
67803;BME280;54601;51.378;-1.342;2022-11-11T01:21:09;100941.53;;;20.01;39.41
67803;BME280;54601;51.378;-1.342;2022-11-11T01:23:32;100946.53;;;19.92;39.54
67803;BME280;54601;51.378;-1.342;2022-11-11T01:26:00;100945.99;;;19.96;39.47
67803;BME280;54601;51.378;-1.342;2022-11-11T01:28:21;100945.85;;;19.64;39.66
67803;BME280;54601;51.378;-1.342;2022-11-11T01:30:46;100946.27;;;19.72;39.50
67803;BME280;54601;51.378;-1.342;2022-11-11T01:33:11;100941.49;;;19.70;39.53
67803;BME280;54601;51.378;-1.342;2022-11-11T01:35:37;100952.06;;;19.81;39.37
67803;BME280;54601;51.378;-1.342;2022-11-11T01:38:01;100942.09;;;20.03;39.37
67803;BME280;54601;51.378;-1.342;2022-11-11T01:40:27;100940.01;;;19.49;39.41
67803;BME280;54601;51.378;-1.342;2022-11-11T01:42:53;100942.61;;;20.06;39.34
67803;BME280;54601;51.378;-1.342;2022-11-11T01:47:42;100944.07;;;19.98;39.44
67803;BME280;54601;51.378;-1.342;2022-11-11T01:50:07;100942.72;;;19.96;39.43
67803;BME280;54601;51.378;-1.342;2022-11-11T01:52:35;100944.23;;;19.73;39.45
67803;BME280;54601;51.378;-1.342;2022-11-11T01:54:59;100947.11;;;20.02;39.36
67803;BME280;54601;51.378;-1.342;2022-11-11T01:57:26;100947.02;;;19.99;39.37
67803;BME280;54601;51.378;-1.342;2022-11-11T01:59:51;100940.12;;;19.99;39.37
67803;BME280;54601;51.378;-1.342;2022-11-11T02:02:17;100941.04;;;19.53;39.34
67803;BME280;54601;51.378;-1.342;2022-11-11T02:04:38;100932.61;;;19.72;39.44
67803;BME280;54601;51.378;-1.342;2022-11-11T02:07:07;100936.69;;;19.68;39.48
67803;BME280;54601;51.378;-1.342;2022-11-11T02:09:29;100944.54;;;19.99;39.40
67803;BME280;54601;51.378;-1.342;2022-11-11T02:11:54;100942.50;;;19.66;39.53
67803;BME280;54601;51.378;-1.342;2022-11-11T02:14:18;100944.01;;;19.96;39.42
67803;BME280;54601;51.378;-1.342;2022-11-11T02:16:43;100943.13;;;19.65;39.54
67803;BME280;54601;51.378;-1.342;2022-11-11T02:19:09;100943.33;;;19.93;39.46
67803;BME280;54601;51.378;-1.342;2022-11-11T02:21:39;100942.99;;;19.91;39.47
67803;BME280;54601;51.378;-1.342;2022-11-11T02:24:02;100942.61;;;19.90;39.47
67803;BME280;54601;51.378;-1.342;2022-11-11T02:26:24;100945.34;;;19.91;39.47
67803;BME280;54601;51.378;-1.342;2022-11-11T02:28:50;100939.99;;;19.68;39.48
67803;BME280;54601;51.378;-1.342;2022-11-11T02:31:14;100929.80;;;19.85;39.56
67803;BME280;54601;51.378;-1.342;2022-11-11T02:33:39;100935.11;;;19.88;39.48
67803;BME280;54601;51.378;-1.342;2022-11-11T02:36:05;100930.34;;;19.88;39.50
67803;BME280;54601;51.378;-1.342;2022-11-11T02:38:30;100919.52;;;19.89;39.46
67803;BME280;54601;51.378;-1.342;2022-11-11T02:40:54;100924.74;;;19.64;39.51
67803;BME280;54601;51.378;-1.342;2022-11-11T02:43:19;100925.35;;;19.84;39.52
67803;BME280;54601;51.378;-1.342;2022-11-11T02:45:44;100926.09;;;19.84;39.54
67803;BME280;54601;51.378;-1.342;2022-11-11T02:48:09;100921.40;;;19.83;39.51
67803;BME280;54601;51.378;-1.342;2022-11-11T02:50:34;100918.62;;;19.45;39.40
67803;BME280;54601;51.378;-1.342;2022-11-11T02:53:00;100921.06;;;19.83;39.51
67803;BME280;54601;51.378;-1.342;2022-11-11T02:55:25;100915.33;;;19.86;39.50
67803;BME280;54601;51.378;-1.342;2022-11-11T02:57:50;100912.66;;;19.84;39.52
67803;BME280;54601;51.378;-1.342;2022-11-11T03:00:16;100915.15;;;19.57;39.59
67803;BME280;54601;51.378;-1.342;2022-11-11T03:02:40;100907.79;;;19.79;39.57
67803;BME280;54601;51.378;-1.342;2022-11-11T03:05:05;100918.99;;;19.66;39.44
67803;BME280;54601;51.378;-1.342;2022-11-11T03:07:30;100917.20;;;19.76;39.58
67803;BME280;54601;51.378;-1.342;2022-11-11T03:09:55;100919.16;;;19.60;39.52
67803;BME280;54601;51.378;-1.342;2022-11-11T03:12:20;100916.08;;;19.53;39.58
67803;BME280;54601;51.378;-1.342;2022-11-11T03:14:45;100928.00;;;19.62;39.52
67803;BME280;54601;51.378;-1.342;2022-11-11T03:17:11;100930.31;;;19.54;39.60
67803;BME280;54601;51.378;-1.342;2022-11-11T03:19:36;100932.51;;;19.73;39.62
67803;BME280;54601;51.378;-1.342;2022-11-11T03:22:01;100941.47;;;19.75;39.62
67803;BME280;54601;51.378;-1.342;2022-11-11T03:24:26;100942.53;;;19.81;39.54
67803;BME280;54601;51.378;-1.342;2022-11-11T03:26:51;100937.32;;;19.48;39.66
67803;BME280;54601;51.378;-1.342;2022-11-11T03:29:16;100937.11;;;19.81;39.52
67803;BME280;54601;51.378;-1.342;2022-11-11T03:31:41;100937.60;;;19.80;39.53
67803;BME280;54601;51.378;-1.342;2022-11-11T03:34:06;100924.19;;;19.69;39.68
67803;BME280;54601;51.378;-1.342;2022-11-11T03:36:31;100931.48;;;19.49;39.65
67803;BME280;54601;51.378;-1.342;2022-11-11T03:38:56;100927.80;;;19.66;39.74
67803;BME280;54601;51.378;-1.342;2022-11-11T03:41:21;100927.41;;;19.49;39.65
67803;BME280;54601;51.378;-1.342;2022-11-11T03:43:46;100923.50;;;19.70;39.67
67803;BME280;54601;51.378;-1.342;2022-11-11T03:46:12;100925.04;;;19.79;39.53
67803;BME280;54601;51.378;-1.342;2022-11-11T03:48:37;100925.44;;;19.69;39.66
67803;BME280;54601;51.378;-1.342;2022-11-11T03:51:02;100924.66;;;19.47;39.66
67803;BME280;54601;51.378;-1.342;2022-11-11T03:53:27;100927.10;;;19.72;39.62
67803;BME280;54601;51.378;-1.342;2022-11-11T03:55:52;100925.08;;;19.61;39.46
67803;BME280;54601;51.378;-1.342;2022-11-11T03:58:18;100923.94;;;19.82;39.48
67803;BME280;54601;51.378;-1.342;2022-11-11T04:00:43;100925.91;;;19.79;39.53
67803;BME280;54601;51.378;-1.342;2022-11-11T04:03:10;100928.72;;;19.70;39.67
67803;BME280;54601;51.378;-1.342;2022-11-11T04:05:32;100927.49;;;19.46;39.69
67803;BME280;54601;51.378;-1.342;2022-11-11T04:07:57;100919.92;;;19.59;39.86
67803;BME280;54601;51.378;-1.342;2022-11-11T04:10:22;100925.69;;;19.62;39.79
67803;BME280;54601;51.378;-1.342;2022-11-11T04:12:48;100927.04;;;19.48;39.65
67803;BME280;54601;51.378;-1.342;2022-11-11T04:15:13;100930.52;;;19.68;39.69
67803;BME280;54601;51.378;-1.342;2022-11-11T04:17:38;100939.39;;;19.81;39.50
67803;BME280;54601;51.378;-1.342;2022-11-11T04:20:03;100941.19;;;19.81;39.47
67803;BME280;54601;51.378;-1.342;2022-11-11T04:22:28;100941.34;;;19.72;39.59
67803;BME280;54601;51.378;-1.342;2022-11-11T04:24:53;100944.01;;;19.36;39.80
67803;BME280;54601;51.378;-1.342;2022-11-11T04:27:19;100936.79;;;19.70;39.65
67803;BME280;54601;51.378;-1.342;2022-11-11T04:29:43;100941.28;;;19.62;39.76
67803;BME280;54601;51.378;-1.342;2022-11-11T04:32:09;100946.04;;;19.41;39.72
67803;BME280;54601;51.378;-1.342;2022-11-11T04:34:33;100946.28;;;19.71;39.61
67803;BME280;54601;51.378;-1.342;2022-11-11T04:36:58;100949.53;;;19.60;39.79
67803;BME280;54601;51.378;-1.342;2022-11-11T04:39:23;100945.72;;;19.61;39.77
67803;BME280;54601;51.378;-1.342;2022-11-11T04:41:49;100939.62;;;19.62;39.74
67803;BME280;54601;51.378;-1.342;2022-11-11T04:44:14;100942.18;;;19.72;39.60
67803;BME280;54601;51.378;-1.342;2022-11-11T04:46:39;100937.22;;;19.67;39.66
67803;BME280;54601;51.378;-1.342;2022-11-11T04:49:04;100940.75;;;19.65;39.66
67803;BME280;54601;51.378;-1.342;2022-11-11T04:51:29;100938.91;;;19.49;39.57
67803;BME280;54601;51.378;-1.342;2022-11-11T04:53:54;100945.76;;;19.74;39.53
67803;BME280;54601;51.378;-1.342;2022-11-11T04:56:19;100949.63;;;19.74;39.61
67803;BME280;54601;51.378;-1.342;2022-11-11T04:58:44;100941.44;;;19.55;39.48
67803;BME280;54601;51.378;-1.342;2022-11-11T05:01:09;100944.96;;;19.87;39.37
67803;BME280;54601;51.378;-1.342;2022-11-11T05:03:34;100947.54;;;19.65;39.35
67803;BME280;54601;51.378;-1.342;2022-11-11T05:06:00;100948.18;;;19.66;39.30
67803;BME280;54601;51.378;-1.342;2022-11-11T05:08:25;100949.30;;;19.81;39.42
67803;BME280;54601;51.378;-1.342;2022-11-11T05:10:50;100945.82;;;19.74;39.50
67803;BME280;54601;51.378;-1.342;2022-11-11T05:13:15;100945.90;;;19.70;39.58
67803;BME280;54601;51.378;-1.342;2022-11-11T05:15:42;100946.16;;;19.85;39.35
67803;BME280;54601;51.378;-1.342;2022-11-11T05:18:05;100947.98;;;19.82;39.39
67803;BME280;54601;51.378;-1.342;2022-11-11T05:20:30;100945.30;;;19.78;39.43
67803;BME280;54601;51.378;-1.342;2022-11-11T05:22:55;100951.03;;;19.63;39.67
67803;BME280;54601;51.378;-1.342;2022-11-11T05:25:20;100962.61;;;19.66;39.62
67803;BME280;54601;51.378;-1.342;2022-11-11T05:27:45;100959.04;;;19.67;39.61
67803;BME280;54601;51.378;-1.342;2022-11-11T05:30:13;100957.80;;;19.39;39.67
67803;BME280;54601;51.378;-1.342;2022-11-11T05:32:36;100954.38;;;19.43;39.60
67803;BME280;54601;51.378;-1.342;2022-11-11T05:35:01;100959.34;;;19.67;39.60
67803;BME280;54601;51.378;-1.342;2022-11-11T05:37:26;100960.40;;;19.44;39.60
67803;BME280;54601;51.378;-1.342;2022-11-11T05:39:51;100956.11;;;19.31;39.77
67803;BME280;54601;51.378;-1.342;2022-11-11T05:42:16;100960.79;;;19.35;39.74
67803;BME280;54601;51.378;-1.342;2022-11-11T05:44:41;100967.34;;;19.61;39.74
67803;BME280;54601;51.378;-1.342;2022-11-11T05:47:06;100969.06;;;19.42;39.80
67803;BME280;54601;51.378;-1.342;2022-11-11T05:49:32;100959.85;;;19.73;39.74
67803;BME280;54601;51.378;-1.342;2022-11-11T05:51:57;100969.49;;;19.63;39.98
67803;BME280;54601;51.378;-1.342;2022-11-11T05:54:22;100964.64;;;19.71;39.86
67803;BME280;54601;51.378;-1.342;2022-11-11T05:56:47;100964.84;;;19.80;39.85
67803;BME280;54601;51.378;-1.342;2022-11-11T05:59:12;100962.96;;;19.74;39.93
67803;BME280;54601;51.378;-1.342;2022-11-11T06:01:37;100973.30;;;19.60;39.97
67803;BME280;54601;51.378;-1.342;2022-11-11T06:04:03;100965.34;;;19.84;39.92
67803;BME280;54601;51.378;-1.342;2022-11-11T06:06:27;100978.69;;;19.88;40.00
67803;BME280;54601;51.378;-1.342;2022-11-11T06:08:52;100967.64;;;19.80;40.14
67803;BME280;54601;51.378;-1.342;2022-11-11T06:11:18;100974.26;;;19.84;40.03
67803;BME280;54601;51.378;-1.342;2022-11-11T06:13:42;100974.61;;;19.62;40.08
67803;BME280;54601;51.378;-1.342;2022-11-11T06:16:08;100981.71;;;19.64;40.08
67803;BME280;54601;51.378;-1.342;2022-11-11T06:18:33;100973.45;;;19.94;40.11
67803;BME280;54601;51.378;-1.342;2022-11-11T06:20:58;100971.36;;;19.90;40.19
67803;BME280;54601;51.378;-1.342;2022-11-11T06:23:24;100974.35;;;19.74;40.15
67803;BME280;54601;51.378;-1.342;2022-11-11T06:25:48;100982.46;;;19.96;40.13
67803;BME280;54601;51.378;-1.342;2022-11-11T06:28:14;100982.70;;;19.71;40.22
67803;BME280;54601;51.378;-1.342;2022-11-11T06:30:39;100984.37;;;20.05;40.03
67803;BME280;54601;51.378;-1.342;2022-11-11T06:33:03;100976.59;;;19.53;40.12
67803;BME280;54601;51.378;-1.342;2022-11-11T06:35:28;100981.22;;;19.70;40.33
67803;BME280;54601;51.378;-1.342;2022-11-11T06:37:53;100985.97;;;19.94;40.31
67803;BME280;54601;51.378;-1.342;2022-11-11T06:40:18;100980.80;;;19.54;40.17
67803;BME280;54601;51.378;-1.342;2022-11-11T06:42:43;100987.28;;;20.00;40.22
67803;BME280;54601;51.378;-1.342;2022-11-11T06:45:09;100993.79;;;20.04;40.13
67803;BME280;54601;51.378;-1.342;2022-11-11T06:47:34;100990.91;;;20.01;40.22
67803;BME280;54601;51.378;-1.342;2022-11-11T06:49:59;100989.14;;;19.81;40.16
67803;BME280;54601;51.378;-1.342;2022-11-11T06:52:24;100992.36;;;19.76;40.26
67803;BME280;54601;51.378;-1.342;2022-11-11T06:54:49;100996.37;;;20.04;39.11
67803;BME280;54601;51.378;-1.342;2022-11-11T06:57:14;100998.15;;;20.25;39.51
67803;BME280;54601;51.378;-1.342;2022-11-11T06:59:39;100998.89;;;19.81;39.73
67803;BME280;54601;51.378;-1.342;2022-11-11T07:02:04;101006.68;;;20.02;39.96
67803;BME280;54601;51.378;-1.342;2022-11-11T07:04:30;101008.15;;;20.17;40.25
67803;BME280;54601;51.378;-1.342;2022-11-11T07:06:54;101012.00;;;19.94;40.29
67803;BME280;54601;51.378;-1.342;2022-11-11T07:09:19;101020.46;;;19.63;40.26
67803;BME280;54601;51.378;-1.342;2022-11-11T07:11:44;101024.23;;;19.68;40.42
67803;BME280;54601;51.378;-1.342;2022-11-11T07:14:10;101026.54;;;19.67;40.42
67803;BME280;54601;51.378;-1.342;2022-11-11T07:16:35;101023.30;;;19.93;40.40
67803;BME280;54601;51.378;-1.342;2022-11-11T07:19:00;101021.23;;;19.95;40.44
67803;BME280;54601;51.378;-1.342;2022-11-11T07:21:25;101026.69;;;20.21;40.47
67803;BME280;54601;51.378;-1.342;2022-11-11T07:23:50;101026.16;;;19.74;40.42
67803;BME280;54601;51.378;-1.342;2022-11-11T07:26:15;101024.68;;;19.99;40.42
67803;BME280;54601;51.378;-1.342;2022-11-11T07:28:40;101027.44;;;20.18;40.48
67803;BME280;54601;51.378;-1.342;2022-11-11T07:31:05;101027.99;;;20.22;40.44
67803;BME280;54601;51.378;-1.342;2022-11-11T07:33:30;101036.26;;;20.18;40.49
67803;BME280;54601;51.378;-1.342;2022-11-11T07:35:55;101042.05;;;20.28;40.36
67803;BME280;54601;51.378;-1.342;2022-11-11T07:38:20;101042.28;;;20.28;40.37
67803;BME280;54601;51.378;-1.342;2022-11-11T07:40:45;101045.41;;;20.32;40.37
67803;BME280;54601;51.378;-1.342;2022-11-11T07:43:11;101046.46;;;20.11;40.36
67803;BME280;54601;51.378;-1.342;2022-11-11T07:45:36;101051.87;;;20.32;40.35
67803;BME280;54601;51.378;-1.342;2022-11-11T07:48:01;101057.77;;;20.13;40.31
67803;BME280;54601;51.378;-1.342;2022-11-11T07:50:26;101059.18;;;20.10;40.40
67803;BME280;54601;51.378;-1.342;2022-11-11T07:52:51;101061.26;;;20.09;40.40
67803;BME280;54601;51.378;-1.342;2022-11-11T07:55:16;101061.44;;;20.12;40.42
67803;BME280;54601;51.378;-1.342;2022-11-11T07:57:41;101063.00;;;19.91;40.33
67803;BME280;54601;51.378;-1.342;2022-11-11T08:00:07;101067.03;;;20.14;40.40
67803;BME280;54601;51.378;-1.342;2022-11-11T08:02:31;101074.77;;;20.11;40.48
67803;BME280;54601;51.378;-1.342;2022-11-11T08:04:56;101066.44;;;20.12;40.48
67803;BME280;54601;51.378;-1.342;2022-11-11T08:07:22;101070.52;;;20.18;40.40
67803;BME280;54601;51.378;-1.342;2022-11-11T08:09:46;101077.77;;;19.94;40.33
67803;BME280;54601;51.378;-1.342;2022-11-11T08:12:11;101082.64;;;20.45;40.35
67803;BME280;54601;51.378;-1.342;2022-11-11T08:14:37;101081.25;;;19.91;40.44
67803;BME280;54601;51.378;-1.342;2022-11-11T08:17:02;101082.85;;;20.19;40.49
67803;BME280;54601;51.378;-1.342;2022-11-11T08:19:27;101088.30;;;19.97;40.48
67803;BME280;54601;51.378;-1.342;2022-11-11T08:21:52;101089.30;;;20.22;40.46
67803;BME280;54601;51.378;-1.342;2022-11-11T08:24:17;101090.01;;;19.97;40.44
67803;BME280;54601;51.378;-1.342;2022-11-11T08:26:42;101099.36;;;19.98;40.54
67803;BME280;54601;51.378;-1.342;2022-11-11T08:29:07;101099.30;;;20.23;40.60
67803;BME280;54601;51.378;-1.342;2022-11-11T08:31:32;101103.13;;;19.92;40.54
67803;BME280;54601;51.378;-1.342;2022-11-11T08:33:57;101106.59;;;20.19;40.65
67803;BME280;54601;51.378;-1.342;2022-11-11T08:36:22;101107.09;;;20.19;40.59
67803;BME280;54601;51.378;-1.342;2022-11-11T08:38:47;101109.94;;;19.92;40.50
67803;BME280;54601;51.378;-1.342;2022-11-11T08:41:12;101115.43;;;20.51;40.41
67803;BME280;54601;51.378;-1.342;2022-11-11T08:43:37;101120.28;;;20.20;40.54
67803;BME280;54601;51.378;-1.342;2022-11-11T08:46:04;101121.83;;;19.91;40.63
67803;BME280;54601;51.378;-1.342;2022-11-11T08:48:28;101123.73;;;20.44;40.49
67803;BME280;54601;51.378;-1.342;2022-11-11T08:50:53;101125.82;;;20.21;40.53
67803;BME280;54601;51.378;-1.342;2022-11-11T08:53:18;101127.82;;;20.22;40.51
67803;BME280;54601;51.378;-1.342;2022-11-11T08:55:43;101133.33;;;20.20;40.53
67803;BME280;54601;51.378;-1.342;2022-11-11T08:58:09;101133.59;;;20.22;40.50
67803;BME280;54601;51.378;-1.342;2022-11-11T09:00:33;101139.24;;;19.99;40.44
67803;BME280;54601;51.378;-1.342;2022-11-11T09:03:00;101140.09;;;20.00;40.34
67803;BME280;54601;51.378;-1.342;2022-11-11T09:05:23;101145.38;;;20.15;40.57
67803;BME280;54601;51.378;-1.342;2022-11-11T09:07:48;101144.59;;;20.39;40.51
67803;BME280;54601;51.378;-1.342;2022-11-11T09:10:13;101148.00;;;20.47;40.29
67803;BME280;54601;51.378;-1.342;2022-11-11T09:12:38;101147.06;;;20.38;40.09
67803;BME280;54601;51.378;-1.342;2022-11-11T09:15:04;101152.01;;;19.98;40.35
67803;BME280;54601;51.378;-1.342;2022-11-11T09:17:28;101148.92;;;19.93;40.43
67803;BME280;54601;51.378;-1.342;2022-11-11T09:19:53;101149.22;;;19.93;40.29
67803;BME280;54601;51.378;-1.342;2022-11-11T09:22:19;101152.12;;;20.46;40.29
67803;BME280;54601;51.378;-1.342;2022-11-11T09:24:44;101154.84;;;20.07;40.11
67803;BME280;54601;51.378;-1.342;2022-11-11T09:27:09;101155.25;;;19.99;40.17
67803;BME280;54601;51.378;-1.342;2022-11-11T09:29:34;101155.91;;;20.06;40.08
67803;BME280;54601;51.378;-1.342;2022-11-11T09:31:59;101166.59;;;19.99;40.18
67803;BME280;54601;51.378;-1.342;2022-11-11T09:34:24;101170.00;;;20.01;40.15
67803;BME280;54601;51.378;-1.342;2022-11-11T09:36:49;101166.02;;;20.25;40.18
67803;BME280;54601;51.378;-1.342;2022-11-11T09:39:14;101167.82;;;20.05;40.17
67803;BME280;54601;51.378;-1.342;2022-11-11T09:41:50;101165.46;;;20.02;40.31
67803;BME280;54601;51.378;-1.342;2022-11-11T09:44:04;101167.37;;;19.93;40.31
67803;BME280;54601;51.378;-1.342;2022-11-11T09:46:34;101165.45;;;20.48;40.22
67803;BME280;54601;51.378;-1.342;2022-11-11T09:49:06;101170.61;;;20.29;40.21
67803;BME280;54601;51.378;-1.342;2022-11-11T09:51:22;101175.44;;;19.98;40.21
67803;BME280;54601;51.378;-1.342;2022-11-11T09:53:49;101177.62;;;19.94;40.48
67803;BME280;54601;51.378;-1.342;2022-11-11T09:56:12;101179.78;;;20.15;40.56
67803;BME280;54601;51.378;-1.342;2022-11-11T09:58:38;101177.87;;;19.79;40.27
67803;BME280;54601;51.378;-1.342;2022-11-11T10:01:06;101180.53;;;19.87;40.49
67803;BME280;54601;51.378;-1.342;2022-11-11T10:03:25;101186.02;;;20.34;40.50
67803;BME280;54601;51.378;-1.342;2022-11-11T10:05:55;101189.63;;;19.89;40.60
67803;BME280;54601;51.378;-1.342;2022-11-11T10:08:17;101188.28;;;19.91;40.47
67803;BME280;54601;51.378;-1.342;2022-11-11T10:10:43;101190.03;;;20.41;40.39
67803;BME280;54601;51.378;-1.342;2022-11-11T10:13:12;101192.90;;;20.06;40.13
67803;BME280;54601;51.378;-1.342;2022-11-11T10:15:35;101196.10;;;20.25;40.25
67803;BME280;54601;51.378;-1.342;2022-11-11T10:18:06;101199.43;;;20.32;40.14
67803;BME280;54601;51.378;-1.342;2022-11-11T10:20:25;101198.14;;;20.16;40.43
67803;BME280;54601;51.378;-1.342;2022-11-11T10:22:46;101198.74;;;19.93;40.30
67803;BME280;54601;51.378;-1.342;2022-11-11T10:25:19;101202.41;;;20.15;40.44
67803;BME280;54601;51.378;-1.342;2022-11-11T10:27:35;101209.19;;;20.00;40.18
67803;BME280;54601;51.378;-1.342;2022-11-11T10:30:07;101206.66;;;20.23;40.22
67803;BME280;54601;51.378;-1.342;2022-11-11T10:32:27;101210.08;;;20.00;40.13
67803;BME280;54601;51.378;-1.342;2022-11-11T10:34:51;101210.02;;;20.18;40.27
67803;BME280;54601;51.378;-1.342;2022-11-11T10:37:18;101214.92;;;19.97;40.22
67803;BME280;54601;51.378;-1.342;2022-11-11T10:39:51;101214.12;;;20.11;40.37
67803;BME280;54601;51.378;-1.342;2022-11-11T10:42:12;101215.09;;;19.91;40.31
67803;BME280;54601;51.378;-1.342;2022-11-11T10:44:32;101209.91;;;20.12;40.36
67803;BME280;54601;51.378;-1.342;2022-11-11T10:47:02;101209.16;;;19.87;40.35
67803;BME280;54601;51.378;-1.342;2022-11-11T10:49:24;101210.38;;;19.89;40.25
67803;BME280;54601;51.378;-1.342;2022-11-11T10:51:50;101211.83;;;20.35;40.30
67803;BME280;54601;51.378;-1.342;2022-11-11T10:54:14;101211.70;;;20.32;40.43
67803;BME280;54601;51.378;-1.342;2022-11-11T10:56:39;101215.71;;;20.33;40.37
67803;BME280;54601;51.378;-1.342;2022-11-11T10:59:08;101219.39;;;19.83;40.38
67803;BME280;54601;51.378;-1.342;2022-11-11T11:01:31;101220.91;;;19.77;40.44
67803;BME280;54601;51.378;-1.342;2022-11-11T11:03:56;101218.46;;;19.74;40.41
67803;BME280;54601;51.378;-1.342;2022-11-11T11:06:21;101222.39;;;20.03;40.43
67803;BME280;54601;51.378;-1.342;2022-11-11T11:08:44;101226.12;;;19.77;40.43
67803;BME280;54601;51.378;-1.342;2022-11-11T11:11:12;101221.95;;;19.81;40.40
67803;BME280;54601;51.378;-1.342;2022-11-11T11:13:38;101229.37;;;20.02;40.43
67803;BME280;54601;51.378;-1.342;2022-11-11T11:16:02;101225.58;;;20.06;40.40
67803;BME280;54601;51.378;-1.342;2022-11-11T11:18:21;101227.17;;;20.24;40.41
67803;BME280;54601;51.378;-1.342;2022-11-11T11:20:54;101231.73;;;20.01;40.44
67803;BME280;54601;51.378;-1.342;2022-11-11T11:23:11;101229.60;;;20.24;40.46
67803;BME280;54601;51.378;-1.342;2022-11-11T11:25:36;101233.74;;;19.97;40.44
67803;BME280;54601;51.378;-1.342;2022-11-11T11:28:07;101228.88;;;20.01;40.43
67803;BME280;54601;51.378;-1.342;2022-11-11T11:30:26;101224.84;;;19.76;40.44
67803;BME280;54601;51.378;-1.342;2022-11-11T11:32:56;101223.62;;;20.02;40.46
67803;BME280;54601;51.378;-1.342;2022-11-11T11:37:48;101241.95;;;20.05;40.40
67803;BME280;54601;51.378;-1.342;2022-11-11T11:40:08;101232.98;;;20.02;40.39
67803;BME280;54601;51.378;-1.342;2022-11-11T11:42:34;101241.38;;;19.82;40.31
67803;BME280;54601;51.378;-1.342;2022-11-11T11:47:36;101242.81;;;19.79;40.38
67803;BME280;54601;51.378;-1.342;2022-11-11T11:52:19;101243.93;;;20.09;40.32
67803;BME280;54601;51.378;-1.342;2022-11-11T11:54:51;101240.31;;;19.82;40.32
67803;BME280;54601;51.378;-1.342;2022-11-11T11:57:17;101237.21;;;19.80;40.34
67803;BME280;54601;51.378;-1.342;2022-11-11T11:59:36;101229.60;;;20.01;40.45
67803;BME280;54601;51.378;-1.342;2022-11-11T12:02:00;101234.15;;;20.06;40.33
67803;BME280;54601;51.378;-1.342;2022-11-11T12:06:53;101234.76;;;20.32;40.32
67803;BME280;54601;51.378;-1.342;2022-11-11T12:09:20;101237.58;;;19.90;40.19
67803;BME280;54601;51.378;-1.342;2022-11-11T12:11:41;101235.19;;;20.08;40.34
67803;BME280;54601;51.378;-1.342;2022-11-11T12:16:32;101231.22;;;19.83;40.32
67803;BME280;54601;51.378;-1.342;2022-11-11T12:19:02;101234.83;;;20.13;40.27
67803;BME280;54601;51.378;-1.342;2022-11-11T12:21:17;101241.06;;;20.28;40.39
67803;BME280;54601;51.378;-1.342;2022-11-11T12:23:52;101242.80;;;19.78;40.41
67803;BME280;54601;51.378;-1.342;2022-11-11T12:26:11;101243.56;;;19.92;40.14
67803;BME280;54601;51.378;-1.342;2022-11-11T12:28:42;101250.41;;;20.12;40.28
67803;BME280;54601;51.378;-1.342;2022-11-11T12:31:04;101246.48;;;19.96;40.13
67803;BME280;54601;51.378;-1.342;2022-11-11T12:35:56;101247.69;;;20.25;40.06
67803;BME280;54601;51.378;-1.342;2022-11-11T12:38:22;101245.62;;;20.24;40.06
67803;BME280;54601;51.378;-1.342;2022-11-11T12:40:45;101239.11;;;20.27;40.03
67803;BME280;54601;51.378;-1.342;2022-11-11T12:43:11;101242.54;;;20.29;40.03
67803;BME280;54601;51.378;-1.342;2022-11-11T12:45:34;101240.43;;;19.96;40.02